sensor_id;sensor_type;location;lat;lon;timestamp;P1;durP1;ratioP1;P2;durP2;ratioP2
19812;SDS011;10066;48.108;11.448;2022-11-20T00:01:34;2.37;;;1.90;;
19812;SDS011;10066;48.108;11.448;2022-11-20T00:04:06;3.37;;;1.80;;
19812;SDS011;10066;48.108;11.448;2022-11-20T00:09:05;2.07;;;1.63;;
19812;SDS011;10066;48.108;11.448;2022-11-20T00:11:33;2.53;;;1.93;;
19812;SDS011;10066;48.108;11.448;2022-11-20T00:14:00;3.00;;;2.10;;
19812;SDS011;10066;48.108;11.448;2022-11-20T00:16:28;3.13;;;1.90;;
19812;SDS011;10066;48.108;11.448;2022-11-20T00:18:58;3.10;;;1.70;;
19812;SDS011;10066;48.108;11.448;2022-11-20T00:21:27;1.83;;;1.60;;
19812;SDS011;10066;48.108;11.448;2022-11-20T00:23:56;2.90;;;1.57;;
19812;SDS011;10066;48.108;11.448;2022-11-20T00:26:25;3.40;;;1.80;;
19812;SDS011;10066;48.108;11.448;2022-11-20T00:28:54;2.57;;;1.77;;
19812;SDS011;10066;48.108;11.448;2022-11-20T00:31:23;2.50;;;1.70;;
19812;SDS011;10066;48.108;11.448;2022-11-20T00:33:51;2.27;;;1.80;;
19812;SDS011;10066;48.108;11.448;2022-11-20T00:36:21;4.70;;;1.90;;
19812;SDS011;10066;48.108;11.448;2022-11-20T00:38:53;2.30;;;1.90;;
19812;SDS011;10066;48.108;11.448;2022-11-20T00:41:21;2.63;;;1.90;;
19812;SDS011;10066;48.108;11.448;2022-11-20T00:43:50;3.30;;;1.90;;
19812;SDS011;10066;48.108;11.448;2022-11-20T00:46:19;3.53;;;2.23;;
19812;SDS011;10066;48.108;11.448;2022-11-20T00:48:50;2.53;;;1.87;;
19812;SDS011;10066;48.108;11.448;2022-11-20T00:51:23;2.83;;;1.80;;
19812;SDS011;10066;48.108;11.448;2022-11-20T00:53:59;2.30;;;2.10;;
19812;SDS011;10066;48.108;11.448;2022-11-20T00:56:28;3.07;;;1.90;;
19812;SDS011;10066;48.108;11.448;2022-11-20T00:58:58;2.97;;;1.90;;
19812;SDS011;10066;48.108;11.448;2022-11-20T01:01:26;3.33;;;2.20;;
19812;SDS011;10066;48.108;11.448;2022-11-20T01:03:55;3.53;;;1.83;;
19812;SDS011;10066;48.108;11.448;2022-11-20T01:06:23;3.40;;;2.10;;
19812;SDS011;10066;48.108;11.448;2022-11-20T01:08:53;5.20;;;2.40;;
19812;SDS011;10066;48.108;11.448;2022-11-20T01:11:24;3.47;;;2.20;;
19812;SDS011;10066;48.108;11.448;2022-11-20T01:13:53;2.67;;;2.00;;
19812;SDS011;10066;48.108;11.448;2022-11-20T01:16:22;3.77;;;2.00;;
19812;SDS011;10066;48.108;11.448;2022-11-20T01:18:53;2.47;;;2.03;;
19812;SDS011;10066;48.108;11.448;2022-11-20T01:21:23;3.47;;;2.20;;
19812;SDS011;10066;48.108;11.448;2022-11-20T01:23:51;3.00;;;1.93;;
19812;SDS011;10066;48.108;11.448;2022-11-20T01:26:20;2.83;;;1.80;;
19812;SDS011;10066;48.108;11.448;2022-11-20T01:28:50;2.57;;;1.90;;
19812;SDS011;10066;48.108;11.448;2022-11-20T01:31:19;3.70;;;2.10;;
19812;SDS011;10066;48.108;11.448;2022-11-20T01:33:50;3.07;;;1.97;;
19812;SDS011;10066;48.108;11.448;2022-11-20T01:36:18;2.60;;;1.97;;
19812;SDS011;10066;48.108;11.448;2022-11-20T01:38:46;4.53;;;2.20;;
19812;SDS011;10066;48.108;11.448;2022-11-20T01:41:15;2.43;;;1.60;;
19812;SDS011;10066;48.108;11.448;2022-11-20T01:43:57;2.53;;;2.10;;
19812;SDS011;10066;48.108;11.448;2022-11-20T01:46:24;2.00;;;1.80;;
19812;SDS011;10066;48.108;11.448;2022-11-20T01:48:54;2.20;;;1.97;;
19812;SDS011;10066;48.108;11.448;2022-11-20T01:51:26;3.43;;;2.20;;
19812;SDS011;10066;48.108;11.448;2022-11-20T01:53:58;2.63;;;1.90;;
19812;SDS011;10066;48.108;11.448;2022-11-20T01:56:31;2.10;;;1.70;;
19812;SDS011;10066;48.108;11.448;2022-11-20T01:59:10;3.53;;;1.70;;
19812;SDS011;10066;48.108;11.448;2022-11-20T02:01:43;3.23;;;1.97;;
19812;SDS011;10066;48.108;11.448;2022-11-20T02:04:10;3.23;;;2.00;;
19812;SDS011;10066;48.108;11.448;2022-11-20T02:06:39;3.07;;;1.80;;
19812;SDS011;10066;48.108;11.448;2022-11-20T02:09:10;2.63;;;1.80;;
19812;SDS011;10066;48.108;11.448;2022-11-20T02:11:37;3.83;;;1.60;;
19812;SDS011;10066;48.108;11.448;2022-11-20T02:14:04;3.47;;;1.73;;
19812;SDS011;10066;48.108;11.448;2022-11-20T02:16:36;2.10;;;1.60;;
19812;SDS011;10066;48.108;11.448;2022-11-20T02:19:08;3.77;;;1.77;;
19812;SDS011;10066;48.108;11.448;2022-11-20T02:21:40;2.83;;;1.87;;
19812;SDS011;10066;48.108;11.448;2022-11-20T02:24:15;2.70;;;1.77;;
19812;SDS011;10066;48.108;11.448;2022-11-20T02:26:47;3.23;;;1.90;;
19812;SDS011;10066;48.108;11.448;2022-11-20T02:29:19;2.30;;;1.90;;
19812;SDS011;10066;48.108;11.448;2022-11-20T02:31:51;2.50;;;1.90;;
19812;SDS011;10066;48.108;11.448;2022-11-20T02:34:21;1.97;;;1.67;;
19812;SDS011;10066;48.108;11.448;2022-11-20T02:36:48;2.67;;;1.90;;
19812;SDS011;10066;48.108;11.448;2022-11-20T02:39:19;3.40;;;1.83;;
19812;SDS011;10066;48.108;11.448;2022-11-20T02:41:48;2.50;;;2.03;;
19812;SDS011;10066;48.108;11.448;2022-11-20T02:44:18;2.40;;;1.70;;
19812;SDS011;10066;48.108;11.448;2022-11-20T02:46:46;4.63;;;2.07;;
19812;SDS011;10066;48.108;11.448;2022-11-20T02:49:13;2.07;;;1.73;;
19812;SDS011;10066;48.108;11.448;2022-11-20T02:51:41;3.00;;;1.80;;
19812;SDS011;10066;48.108;11.448;2022-11-20T02:54:08;4.47;;;2.03;;
19812;SDS011;10066;48.108;11.448;2022-11-20T02:56:39;2.57;;;2.00;;
19812;SDS011;10066;48.108;11.448;2022-11-20T02:59:06;3.00;;;2.00;;
19812;SDS011;10066;48.108;11.448;2022-11-20T03:01:36;2.27;;;2.07;;
19812;SDS011;10066;48.108;11.448;2022-11-20T03:04:03;3.00;;;2.07;;
19812;SDS011;10066;48.108;11.448;2022-11-20T03:06:35;2.33;;;2.13;;
19812;SDS011;10066;48.108;11.448;2022-11-20T03:09:02;5.17;;;2.30;;
19812;SDS011;10066;48.108;11.448;2022-11-20T03:11:29;2.40;;;1.83;;
19812;SDS011;10066;48.108;11.448;2022-11-20T03:13:58;2.10;;;1.90;;
19812;SDS011;10066;48.108;11.448;2022-11-20T03:16:31;2.77;;;1.97;;
19812;SDS011;10066;48.108;11.448;2022-11-20T03:19:02;3.40;;;2.40;;
19812;SDS011;10066;48.108;11.448;2022-11-20T03:21:29;5.47;;;2.53;;
19812;SDS011;10066;48.108;11.448;2022-11-20T03:23:58;3.07;;;2.07;;
19812;SDS011;10066;48.108;11.448;2022-11-20T03:26:25;2.73;;;2.20;;
19812;SDS011;10066;48.108;11.448;2022-11-20T03:28:55;2.47;;;1.87;;
19812;SDS011;10066;48.108;11.448;2022-11-20T03:31:25;2.87;;;1.90;;
19812;SDS011;10066;48.108;11.448;2022-11-20T03:33:54;3.00;;;2.00;;
19812;SDS011;10066;48.108;11.448;2022-11-20T03:36:24;3.67;;;2.30;;
19812;SDS011;10066;48.108;11.448;2022-11-20T03:38:52;3.07;;;2.00;;
19812;SDS011;10066;48.108;11.448;2022-11-20T03:41:20;2.67;;;2.03;;
19812;SDS011;10066;48.108;11.448;2022-11-20T03:43:49;3.00;;;2.40;;
19812;SDS011;10066;48.108;11.448;2022-11-20T03:46:17;4.00;;;2.20;;
19812;SDS011;10066;48.108;11.448;2022-11-20T03:48:47;2.97;;;2.20;;
19812;SDS011;10066;48.108;11.448;2022-11-20T03:51:24;3.73;;;2.27;;
19812;SDS011;10066;48.108;11.448;2022-11-20T03:53:54;2.13;;;1.90;;
19812;SDS011;10066;48.108;11.448;2022-11-20T03:56:23;4.03;;;2.17;;
19812;SDS011;10066;48.108;11.448;2022-11-20T03:58:53;2.30;;;2.10;;
19812;SDS011;10066;48.108;11.448;2022-11-20T04:01:23;2.33;;;1.93;;
19812;SDS011;10066;48.108;11.448;2022-11-20T04:03:55;2.63;;;2.10;;
19812;SDS011;10066;48.108;11.448;2022-11-20T04:06:25;2.87;;;2.37;;
19812;SDS011;10066;48.108;11.448;2022-11-20T04:08:54;2.20;;;2.00;;
19812;SDS011;10066;48.108;11.448;2022-11-20T04:11:24;2.53;;;2.20;;
19812;SDS011;10066;48.108;11.448;2022-11-20T04:13:54;2.27;;;1.93;;
19812;SDS011;10066;48.108;11.448;2022-11-20T04:16:23;3.23;;;2.13;;
19812;SDS011;10066;48.108;11.448;2022-11-20T04:18:52;2.80;;;2.07;;
19812;SDS011;10066;48.108;11.448;2022-11-20T04:21:23;2.70;;;1.70;;
19812;SDS011;10066;48.108;11.448;2022-11-20T04:23:51;2.47;;;2.00;;
19812;SDS011;10066;48.108;11.448;2022-11-20T04:26:22;2.27;;;1.90;;
19812;SDS011;10066;48.108;11.448;2022-11-20T04:28:50;2.80;;;2.20;;
19812;SDS011;10066;48.108;11.448;2022-11-20T04:31:19;2.47;;;1.80;;
19812;SDS011;10066;48.108;11.448;2022-11-20T04:33:50;3.03;;;2.30;;
19812;SDS011;10066;48.108;11.448;2022-11-20T04:36:21;2.30;;;2.10;;
19812;SDS011;10066;48.108;11.448;2022-11-20T04:38:50;2.83;;;2.00;;
19812;SDS011;10066;48.108;11.448;2022-11-20T04:41:19;2.10;;;1.90;;
19812;SDS011;10066;48.108;11.448;2022-11-20T04:43:47;2.47;;;1.77;;
19812;SDS011;10066;48.108;11.448;2022-11-20T04:46:16;3.63;;;2.10;;
19812;SDS011;10066;48.108;11.448;2022-11-20T04:48:45;3.60;;;2.20;;
19812;SDS011;10066;48.108;11.448;2022-11-20T04:51:13;2.80;;;2.13;;
19812;SDS011;10066;48.108;11.448;2022-11-20T04:53:42;2.17;;;1.90;;
19812;SDS011;10066;48.108;11.448;2022-11-20T04:56:11;3.30;;;2.17;;
19812;SDS011;10066;48.108;11.448;2022-11-20T04:58:40;3.23;;;1.97;;
19812;SDS011;10066;48.108;11.448;2022-11-20T05:01:09;3.40;;;2.50;;
19812;SDS011;10066;48.108;11.448;2022-11-20T05:03:39;2.70;;;2.10;;
19812;SDS011;10066;48.108;11.448;2022-11-20T05:06:07;2.97;;;2.00;;
19812;SDS011;10066;48.108;11.448;2022-11-20T05:08:35;3.10;;;2.10;;
19812;SDS011;10066;48.108;11.448;2022-11-20T05:11:06;2.40;;;2.03;;
19812;SDS011;10066;48.108;11.448;2022-11-20T05:13:34;3.67;;;2.60;;
19812;SDS011;10066;48.108;11.448;2022-11-20T05:16:13;3.07;;;2.10;;
19812;SDS011;10066;48.108;11.448;2022-11-20T05:18:44;2.80;;;2.00;;
19812;SDS011;10066;48.108;11.448;2022-11-20T05:21:17;2.50;;;2.30;;
19812;SDS011;10066;48.108;11.448;2022-11-20T05:23:44;2.57;;;2.20;;
19812;SDS011;10066;48.108;11.448;2022-11-20T05:26:16;2.77;;;2.40;;
19812;SDS011;10066;48.108;11.448;2022-11-20T05:28:44;2.97;;;2.33;;
19812;SDS011;10066;48.108;11.448;2022-11-20T05:31:12;3.43;;;2.20;;
19812;SDS011;10066;48.108;11.448;2022-11-20T05:33:41;3.40;;;2.50;;
19812;SDS011;10066;48.108;11.448;2022-11-20T05:36:10;3.20;;;2.17;;
19812;SDS011;10066;48.108;11.448;2022-11-20T05:38:38;4.10;;;2.30;;
19812;SDS011;10066;48.108;11.448;2022-11-20T05:41:05;3.13;;;2.30;;
19812;SDS011;10066;48.108;11.448;2022-11-20T05:43:36;2.53;;;2.00;;
19812;SDS011;10066;48.108;11.448;2022-11-20T05:46:06;3.17;;;2.20;;
19812;SDS011;10066;48.108;11.448;2022-11-20T05:48:35;4.07;;;2.20;;
19812;SDS011;10066;48.108;11.448;2022-11-20T05:51:03;2.60;;;2.00;;
19812;SDS011;10066;48.108;11.448;2022-11-20T05:53:33;2.37;;;2.07;;
19812;SDS011;10066;48.108;11.448;2022-11-20T05:56:02;3.20;;;2.07;;
19812;SDS011;10066;48.108;11.448;2022-11-20T05:58:32;3.07;;;1.90;;
19812;SDS011;10066;48.108;11.448;2022-11-20T06:01:05;2.53;;;1.87;;
19812;SDS011;10066;48.108;11.448;2022-11-20T06:03:35;2.30;;;2.10;;
19812;SDS011;10066;48.108;11.448;2022-11-20T06:06:03;2.60;;;2.33;;
19812;SDS011;10066;48.108;11.448;2022-11-20T06:08:32;2.53;;;2.07;;
19812;SDS011;10066;48.108;11.448;2022-11-20T06:11:03;2.73;;;2.07;;
19812;SDS011;10066;48.108;11.448;2022-11-20T06:13:31;2.50;;;2.20;;
19812;SDS011;10066;48.108;11.448;2022-11-20T06:16:00;2.40;;;2.00;;
19812;SDS011;10066;48.108;11.448;2022-11-20T06:18:30;3.03;;;2.30;;
19812;SDS011;10066;48.108;11.448;2022-11-20T06:21:02;2.60;;;2.00;;
19812;SDS011;10066;48.108;11.448;2022-11-20T06:23:32;4.47;;;2.30;;
19812;SDS011;10066;48.108;11.448;2022-11-20T06:26:02;3.30;;;2.20;;
19812;SDS011;10066;48.108;11.448;2022-11-20T06:28:33;3.50;;;2.10;;
19812;SDS011;10066;48.108;11.448;2022-11-20T06:31:01;3.40;;;2.13;;
19812;SDS011;10066;48.108;11.448;2022-11-20T06:33:32;2.87;;;2.03;;
19812;SDS011;10066;48.108;11.448;2022-11-20T06:36:00;3.30;;;2.10;;
19812;SDS011;10066;48.108;11.448;2022-11-20T06:38:27;4.53;;;2.20;;
19812;SDS011;10066;48.108;11.448;2022-11-20T06:40:55;2.67;;;2.00;;
19812;SDS011;10066;48.108;11.448;2022-11-20T06:43:22;2.00;;;1.80;;
19812;SDS011;10066;48.108;11.448;2022-11-20T06:45:51;3.20;;;2.00;;
19812;SDS011;10066;48.108;11.448;2022-11-20T06:48:19;2.27;;;1.70;;
19812;SDS011;10066;48.108;11.448;2022-11-20T06:50:48;3.43;;;2.03;;
19812;SDS011;10066;48.108;11.448;2022-11-20T06:53:15;1.60;;;1.50;;
19812;SDS011;10066;48.108;11.448;2022-11-20T06:55:42;3.20;;;1.70;;
19812;SDS011;10066;48.108;11.448;2022-11-20T06:58:11;1.90;;;1.57;;
19812;SDS011;10066;48.108;11.448;2022-11-20T07:00:44;2.00;;;1.70;;
19812;SDS011;10066;48.108;11.448;2022-11-20T07:03:12;2.77;;;1.63;;
19812;SDS011;10066;48.108;11.448;2022-11-20T07:05:39;1.87;;;1.47;;
19812;SDS011;10066;48.108;11.448;2022-11-20T07:08:08;1.50;;;1.40;;
19812;SDS011;10066;48.108;11.448;2022-11-20T07:10:35;2.00;;;1.40;;
19812;SDS011;10066;48.108;11.448;2022-11-20T07:13:04;2.23;;;1.33;;
19812;SDS011;10066;48.108;11.448;2022-11-20T07:15:32;2.03;;;1.23;;
19812;SDS011;10066;48.108;11.448;2022-11-20T07:17:59;2.57;;;1.60;;
19812;SDS011;10066;48.108;11.448;2022-11-20T07:20:28;2.40;;;1.40;;
19812;SDS011;10066;48.108;11.448;2022-11-20T07:22:56;1.50;;;1.20;;
19812;SDS011;10066;48.108;11.448;2022-11-20T07:25:26;2.57;;;2.00;;
19812;SDS011;10066;48.108;11.448;2022-11-20T07:27:56;2.33;;;1.83;;
19812;SDS011;10066;48.108;11.448;2022-11-20T07:30:23;3.17;;;2.00;;
19812;SDS011;10066;48.108;11.448;2022-11-20T07:32:51;2.20;;;2.00;;
19812;SDS011;10066;48.108;11.448;2022-11-20T07:35:23;3.20;;;1.90;;
19812;SDS011;10066;48.108;11.448;2022-11-20T07:37:50;2.30;;;2.10;;
19812;SDS011;10066;48.108;11.448;2022-11-20T07:40:17;3.07;;;2.20;;
19812;SDS011;10066;48.108;11.448;2022-11-20T07:42:50;2.70;;;1.87;;
19812;SDS011;10066;48.108;11.448;2022-11-20T07:45:18;2.60;;;2.20;;
19812;SDS011;10066;48.108;11.448;2022-11-20T07:47:49;3.50;;;2.13;;
19812;SDS011;10066;48.108;11.448;2022-11-20T07:50:23;2.90;;;1.97;;
19812;SDS011;10066;48.108;11.448;2022-11-20T07:52:51;2.30;;;1.90;;
19812;SDS011;10066;48.108;11.448;2022-11-20T07:55:19;2.23;;;1.77;;
19812;SDS011;10066;48.108;11.448;2022-11-20T07:57:55;2.53;;;1.63;;
19812;SDS011;10066;48.108;11.448;2022-11-20T08:00:25;2.63;;;1.90;;
19812;SDS011;10066;48.108;11.448;2022-11-20T08:02:53;1.90;;;1.70;;
19812;SDS011;10066;48.108;11.448;2022-11-20T08:05:23;2.57;;;1.80;;
19812;SDS011;10066;48.108;11.448;2022-11-20T08:07:53;3.13;;;1.70;;
19812;SDS011;10066;48.108;11.448;2022-11-20T08:10:25;2.80;;;1.87;;
19812;SDS011;10066;48.108;11.448;2022-11-20T08:12:52;3.80;;;1.60;;
19812;SDS011;10066;48.108;11.448;2022-11-20T08:15:39;2.23;;;1.67;;
19812;SDS011;10066;48.108;11.448;2022-11-20T08:18:17;2.83;;;1.80;;
19812;SDS011;10066;48.108;11.448;2022-11-20T08:20:51;3.97;;;1.63;;
19812;SDS011;10066;48.108;11.448;2022-11-20T08:23:18;2.90;;;1.60;;
19812;SDS011;10066;48.108;11.448;2022-11-20T08:25:48;2.07;;;1.70;;
19812;SDS011;10066;48.108;11.448;2022-11-20T08:28:20;2.47;;;1.70;;
19812;SDS011;10066;48.108;11.448;2022-11-20T08:30:47;4.20;;;2.27;;
19812;SDS011;10066;48.108;11.448;2022-11-20T08:33:14;1.83;;;1.43;;
19812;SDS011;10066;48.108;11.448;2022-11-20T08:35:42;1.60;;;1.50;;
19812;SDS011;10066;48.108;11.448;2022-11-20T08:38:09;3.40;;;1.70;;
19812;SDS011;10066;48.108;11.448;2022-11-20T08:40:36;2.67;;;1.70;;
19812;SDS011;10066;48.108;11.448;2022-11-20T08:43:06;2.37;;;1.53;;
19812;SDS011;10066;48.108;11.448;2022-11-20T08:45:35;1.97;;;1.67;;
19812;SDS011;10066;48.108;11.448;2022-11-20T08:48:03;3.07;;;1.60;;
19812;SDS011;10066;48.108;11.448;2022-11-20T08:50:30;3.20;;;1.50;;
19812;SDS011;10066;48.108;11.448;2022-11-20T08:53:01;2.43;;;1.57;;
19812;SDS011;10066;48.108;11.448;2022-11-20T08:55:29;1.63;;;1.20;;
19812;SDS011;10066;48.108;11.448;2022-11-20T08:58:02;2.97;;;1.43;;
19812;SDS011;10066;48.108;11.448;2022-11-20T09:00:30;2.07;;;1.40;;
19812;SDS011;10066;48.108;11.448;2022-11-20T09:03:00;3.10;;;1.50;;
19812;SDS011;10066;48.108;11.448;2022-11-20T09:05:28;2.07;;;1.37;;
19812;SDS011;10066;48.108;11.448;2022-11-20T09:07:56;1.87;;;1.17;;
19812;SDS011;10066;48.108;11.448;2022-11-20T09:10:23;2.27;;;1.27;;
19812;SDS011;10066;48.108;11.448;2022-11-20T09:12:50;2.63;;;1.40;;
19812;SDS011;10066;48.108;11.448;2022-11-20T09:15:20;1.30;;;1.20;;
19812;SDS011;10066;48.108;11.448;2022-11-20T09:17:50;1.30;;;1.20;;
19812;SDS011;10066;48.108;11.448;2022-11-20T09:20:21;1.77;;;1.30;;
19812;SDS011;10066;48.108;11.448;2022-11-20T09:22:50;2.93;;;1.37;;
19812;SDS011;10066;48.108;11.448;2022-11-20T09:25:19;1.50;;;1.20;;
19812;SDS011;10066;48.108;11.448;2022-11-20T09:27:47;1.73;;;1.30;;
19812;SDS011;10066;48.108;11.448;2022-11-20T09:30:21;2.53;;;1.60;;
19812;SDS011;10066;48.108;11.448;2022-11-20T09:32:51;1.83;;;1.40;;
19812;SDS011;10066;48.108;11.448;2022-11-20T09:35:21;1.87;;;1.30;;
19812;SDS011;10066;48.108;11.448;2022-11-20T09:37:49;2.40;;;1.33;;
19812;SDS011;10066;48.108;11.448;2022-11-20T09:40:19;2.27;;;1.20;;
19812;SDS011;10066;48.108;11.448;2022-11-20T09:42:49;2.07;;;1.30;;
19812;SDS011;10066;48.108;11.448;2022-11-20T09:45:23;1.80;;;1.20;;
19812;SDS011;10066;48.108;11.448;2022-11-20T09:48:14;3.27;;;1.20;;
19812;SDS011;10066;48.108;11.448;2022-11-20T09:50:55;2.63;;;1.30;;
19812;SDS011;10066;48.108;11.448;2022-11-20T09:53:30;1.73;;;1.10;;
19812;SDS011;10066;48.108;11.448;2022-11-20T09:56:06;1.67;;;1.00;;
19812;SDS011;10066;48.108;11.448;2022-11-20T09:58:38;2.07;;;1.00;;
19812;SDS011;10066;48.108;11.448;2022-11-20T10:01:09;2.50;;;1.17;;
19812;SDS011;10066;48.108;11.448;2022-11-20T10:03:44;2.13;;;1.10;;
19812;SDS011;10066;48.108;11.448;2022-11-20T10:06:20;2.90;;;1.13;;
19812;SDS011;10066;48.108;11.448;2022-11-20T10:09:01;2.70;;;1.20;;
19812;SDS011;10066;48.108;11.448;2022-11-20T10:11:38;1.73;;;1.00;;
19812;SDS011;10066;48.108;11.448;2022-11-20T10:14:17;1.53;;;1.10;;
19812;SDS011;10066;48.108;11.448;2022-11-20T10:17:02;1.20;;;1.00;;
19812;SDS011;10066;48.108;11.448;2022-11-20T10:19:43;2.03;;;1.07;;
19812;SDS011;10066;48.108;11.448;2022-11-20T10:22:25;1.43;;;1.20;;
19812;SDS011;10066;48.108;11.448;2022-11-20T10:25:04;1.17;;;0.93;;
19812;SDS011;10066;48.108;11.448;2022-11-20T10:27:59;1.17;;;0.90;;
19812;SDS011;10066;48.108;11.448;2022-11-20T10:30:50;1.93;;;1.00;;
19812;SDS011;10066;48.108;11.448;2022-11-20T10:33:23;1.50;;;0.90;;
19812;SDS011;10066;48.108;11.448;2022-11-20T10:35:55;1.30;;;0.97;;
19812;SDS011;10066;48.108;11.448;2022-11-20T10:38:34;2.10;;;1.50;;
19812;SDS011;10066;48.108;11.448;2022-11-20T10:41:05;1.63;;;0.70;;
19812;SDS011;10066;48.108;11.448;2022-11-20T10:43:52;1.27;;;1.00;;
19812;SDS011;10066;48.108;11.448;2022-11-20T10:46:25;1.70;;;0.80;;
19812;SDS011;10066;48.108;11.448;2022-11-20T10:48:59;0.90;;;0.80;;
19812;SDS011;10066;48.108;11.448;2022-11-20T10:51:30;1.83;;;0.97;;
19812;SDS011;10066;48.108;11.448;2022-11-20T10:54:08;0.70;;;0.60;;
19812;SDS011;10066;48.108;11.448;2022-11-20T10:56:43;1.93;;;0.80;;
19812;SDS011;10066;48.108;11.448;2022-11-20T10:59:27;1.17;;;0.80;;
19812;SDS011;10066;48.108;11.448;2022-11-20T11:02:29;1.20;;;0.70;;
19812;SDS011;10066;48.108;11.448;2022-11-20T11:05:05;1.83;;;0.90;;
19812;SDS011;10066;48.108;11.448;2022-11-20T11:07:42;1.47;;;0.80;;
19812;SDS011;10066;48.108;11.448;2022-11-20T11:10:15;1.40;;;1.00;;
19812;SDS011;10066;48.108;11.448;2022-11-20T11:12:44;0.70;;;0.70;;
19812;SDS011;10066;48.108;11.448;2022-11-20T11:15:13;0.93;;;0.80;;
19812;SDS011;10066;48.108;11.448;2022-11-20T11:17:50;1.67;;;0.90;;
19812;SDS011;10066;48.108;11.448;2022-11-20T11:20:18;1.73;;;0.90;;
19812;SDS011;10066;48.108;11.448;2022-11-20T11:22:49;1.23;;;0.80;;
19812;SDS011;10066;48.108;11.448;2022-11-20T11:25:42;1.10;;;0.70;;
19812;SDS011;10066;48.108;11.448;2022-11-20T11:28:22;1.47;;;0.80;;
19812;SDS011;10066;48.108;11.448;2022-11-20T11:30:53;1.30;;;1.00;;
19812;SDS011;10066;48.108;11.448;2022-11-20T11:33:24;2.57;;;1.00;;
19812;SDS011;10066;48.108;11.448;2022-11-20T11:35:53;2.20;;;1.03;;
19812;SDS011;10066;48.108;11.448;2022-11-20T11:38:29;1.60;;;1.00;;
19812;SDS011;10066;48.108;11.448;2022-11-20T11:41:02;1.80;;;0.90;;
19812;SDS011;10066;48.108;11.448;2022-11-20T11:43:35;1.83;;;0.77;;
19812;SDS011;10066;48.108;11.448;2022-11-20T11:46:24;2.00;;;1.03;;
19812;SDS011;10066;48.108;11.448;2022-11-20T11:48:58;1.43;;;0.90;;
19812;SDS011;10066;48.108;11.448;2022-11-20T11:51:28;1.00;;;0.77;;
19812;SDS011;10066;48.108;11.448;2022-11-20T11:54:01;1.00;;;0.80;;
19812;SDS011;10066;48.108;11.448;2022-11-20T11:56:40;1.33;;;0.83;;
19812;SDS011;10066;48.108;11.448;2022-11-20T11:59:08;1.33;;;0.80;;
19812;SDS011;10066;48.108;11.448;2022-11-20T12:01:43;2.87;;;1.00;;
19812;SDS011;10066;48.108;11.448;2022-11-20T12:04:17;1.53;;;0.80;;
19812;SDS011;10066;48.108;11.448;2022-11-20T12:06:53;2.23;;;0.70;;
19812;SDS011;10066;48.108;11.448;2022-11-20T12:09:28;2.17;;;0.93;;
19812;SDS011;10066;48.108;11.448;2022-11-20T12:12:05;1.40;;;0.90;;
19812;SDS011;10066;48.108;11.448;2022-11-20T12:14:37;1.10;;;1.00;;
19812;SDS011;10066;48.108;11.448;2022-11-20T12:17:07;1.97;;;1.00;;
19812;SDS011;10066;48.108;11.448;2022-11-20T12:19:38;1.07;;;0.90;;
19812;SDS011;10066;48.108;11.448;2022-11-20T12:22:07;2.00;;;1.10;;
19812;SDS011;10066;48.108;11.448;2022-11-20T12:24:48;2.00;;;1.13;;
19812;SDS011;10066;48.108;11.448;2022-11-20T12:30:27;2.10;;;0.77;;
19812;SDS011;10066;48.108;11.448;2022-11-20T12:33:06;1.10;;;0.73;;
19812;SDS011;10066;48.108;11.448;2022-11-20T12:35:44;1.97;;;0.90;;
19812;SDS011;10066;48.108;11.448;2022-11-20T12:38:29;2.63;;;1.00;;
19812;SDS011;10066;48.108;11.448;2022-11-20T12:41:11;1.90;;;1.00;;
19812;SDS011;10066;48.108;11.448;2022-11-20T12:44:01;1.40;;;1.10;;
19812;SDS011;10066;48.108;11.448;2022-11-20T12:46:55;1.00;;;0.90;;
19812;SDS011;10066;48.108;11.448;2022-11-20T12:49:32;1.97;;;1.40;;
19812;SDS011;10066;48.108;11.448;2022-11-20T12:52:11;1.27;;;0.80;;
19812;SDS011;10066;48.108;11.448;2022-11-20T12:55:00;2.00;;;0.97;;
19812;SDS011;10066;48.108;11.448;2022-11-20T12:58:03;3.00;;;1.13;;
19812;SDS011;10066;48.108;11.448;2022-11-20T13:00:39;1.30;;;1.00;;
19812;SDS011;10066;48.108;11.448;2022-11-20T13:06:12;1.33;;;1.00;;
19812;SDS011;10066;48.108;11.448;2022-11-20T13:08:43;2.57;;;1.17;;
19812;SDS011;10066;48.108;11.448;2022-11-20T13:11:17;1.60;;;1.23;;
19812;SDS011;10066;48.108;11.448;2022-11-20T13:13:56;1.70;;;1.30;;
19812;SDS011;10066;48.108;11.448;2022-11-20T13:16:47;2.43;;;1.00;;
19812;SDS011;10066;48.108;11.448;2022-11-20T13:19:20;1.30;;;1.00;;
19812;SDS011;10066;48.108;11.448;2022-11-20T13:21:48;1.57;;;1.10;;
19812;SDS011;10066;48.108;11.448;2022-11-20T13:24:23;1.43;;;1.10;;
19812;SDS011;10066;48.108;11.448;2022-11-20T13:27:18;1.30;;;1.20;;
19812;SDS011;10066;48.108;11.448;2022-11-20T13:29:58;1.47;;;1.10;;
19812;SDS011;10066;48.108;11.448;2022-11-20T13:32:29;1.83;;;1.10;;
19812;SDS011;10066;48.108;11.448;2022-11-20T13:34:58;1.60;;;1.10;;
19812;SDS011;10066;48.108;11.448;2022-11-20T13:37:28;1.80;;;1.00;;
19812;SDS011;10066;48.108;11.448;2022-11-20T13:40:13;1.70;;;1.10;;
19812;SDS011;10066;48.108;11.448;2022-11-20T13:42:54;1.60;;;1.20;;
19812;SDS011;10066;48.108;11.448;2022-11-20T13:45:24;2.43;;;1.33;;
19812;SDS011;10066;48.108;11.448;2022-11-20T13:47:53;2.93;;;1.10;;
19812;SDS011;10066;48.108;11.448;2022-11-20T13:50:29;1.43;;;1.20;;
19812;SDS011;10066;48.108;11.448;2022-11-20T13:53:15;1.10;;;1.00;;
19812;SDS011;10066;48.108;11.448;2022-11-20T13:56:00;1.53;;;1.27;;
19812;SDS011;10066;48.108;11.448;2022-11-20T13:58:35;1.30;;;1.20;;
19812;SDS011;10066;48.108;11.448;2022-11-20T14:01:14;1.90;;;1.40;;
19812;SDS011;10066;48.108;11.448;2022-11-20T14:03:47;2.03;;;1.47;;
19812;SDS011;10066;48.108;11.448;2022-11-20T14:06:18;1.67;;;1.13;;
19812;SDS011;10066;48.108;11.448;2022-11-20T14:08:52;2.43;;;1.30;;
19812;SDS011;10066;48.108;11.448;2022-11-20T14:11:20;1.70;;;1.27;;
19812;SDS011;10066;48.108;11.448;2022-11-20T14:13:53;1.67;;;1.27;;
19812;SDS011;10066;48.108;11.448;2022-11-20T14:16:22;3.80;;;1.30;;
19812;SDS011;10066;48.108;11.448;2022-11-20T14:18:50;1.87;;;1.20;;
19812;SDS011;10066;48.108;11.448;2022-11-20T14:21:24;2.93;;;1.20;;
19812;SDS011;10066;48.108;11.448;2022-11-20T14:23:52;1.70;;;1.40;;
19812;SDS011;10066;48.108;11.448;2022-11-20T14:26:20;1.40;;;1.30;;
19812;SDS011;10066;48.108;11.448;2022-11-20T14:28:48;1.37;;;1.00;;
19812;SDS011;10066;48.108;11.448;2022-11-20T14:31:18;2.87;;;1.40;;
19812;SDS011;10066;48.108;11.448;2022-11-20T14:33:50;2.13;;;1.20;;
19812;SDS011;10066;48.108;11.448;2022-11-20T14:36:19;1.70;;;1.30;;
19812;SDS011;10066;48.108;11.448;2022-11-20T14:38:48;3.13;;;1.10;;
19812;SDS011;10066;48.108;11.448;2022-11-20T14:41:19;1.57;;;1.13;;
19812;SDS011;10066;48.108;11.448;2022-11-20T14:43:50;3.50;;;1.40;;
19812;SDS011;10066;48.108;11.448;2022-11-20T14:46:22;2.03;;;1.00;;
19812;SDS011;10066;48.108;11.448;2022-11-20T14:48:51;2.20;;;1.10;;
19812;SDS011;10066;48.108;11.448;2022-11-20T14:51:23;2.03;;;1.00;;
19812;SDS011;10066;48.108;11.448;2022-11-20T14:53:54;1.97;;;1.10;;
19812;SDS011;10066;48.108;11.448;2022-11-20T14:56:22;1.17;;;0.97;;
19812;SDS011;10066;48.108;11.448;2022-11-20T14:58:56;1.47;;;1.00;;
19812;SDS011;10066;48.108;11.448;2022-11-20T15:01:25;0.80;;;0.70;;
19812;SDS011;10066;48.108;11.448;2022-11-20T15:04:00;1.40;;;0.70;;
19812;SDS011;10066;48.108;11.448;2022-11-20T15:06:31;1.67;;;0.70;;
19812;SDS011;10066;48.108;11.448;2022-11-20T15:08:57;1.03;;;0.60;;